Time;durP1;ratioP1;P1;durP2;ratioP2;P2;SDS_P1;SDS_P2;PMS_P1;PMS_P2;Temp;Humidity;BMP_temperature;BMP_pressure;BME280_temperature;BME280_humidity;BME280_pressure;Samples;Min_cycle;Max_cycle;Signal;HPM_P1;HPM_P2
2023/05/27 00:01:28;;;;;;;14.82;5.50;;;;;;;13.69;61.09;102760.41;5151152;28;20031;-87
2023/05/27 00:03:59;;;;;;;15.47;5.47;;;;;;;13.54;60.64;102757.50;5155742;28;20061;-86
2023/05/27 00:06:32;;;;;;;22.07;5.47;;;;;;;13.66;61.62;102771.09;5171245;28;20058;-86
2023/05/27 00:09:04;;;;;;;19.43;6.40;;;;;;;13.37;61.61;102745.00;5154707;28;20038;-86
2023/05/27 00:11:36;;;;;;;16.43;4.77;;;;;;;13.49;61.11;102763.88;5172027;28;20027;-87
2023/05/27 00:14:07;;;;;;;19.27;5.50;;;;;;;13.49;60.76;102759.44;5167824;28;20035;-87
2023/05/27 00:16:38;;;;;;;18.77;6.73;;;;;;;13.46;62.00;102761.38;5141208;28;20023;-91
2023/05/27 00:19:14;;;;;;;18.20;5.37;;;;;;;13.62;61.74;102782.66;5153814;28;20012;-87
2023/05/27 00:21:57;;;;;;;17.20;5.53;;;;;;;13.96;61.05;102797.03;5153764;28;20027;-86
2023/05/27 00:24:31;;;;;;;16.27;5.53;;;;;;;13.30;62.01;102754.06;5153700;28;20062;-84
2023/05/27 00:27:02;;;;;;;15.87;5.67;;;;;;;13.22;62.30;102756.16;5154282;28;20054;-88
2023/05/27 00:29:41;;;;;;;13.63;5.20;;;;;;;13.23;62.89;102747.38;5153316;28;20074;-86
2023/05/27 00:32:13;;;;;;;16.17;4.60;;;;;;;12.96;63.12;102761.56;5136292;29;20019;-86
2023/05/27 00:34:47;;;;;;;17.57;5.20;;;;;;;13.11;62.28;102727.69;5155391;28;20092;-84
2023/05/27 00:37:26;;;;;;;;;;;;;;;14.12;57.63;102791.94;5158875;28;20035;-87
2023/05/27 00:39:57;;;;;;;16.97;5.57;;;;;;;12.94;63.24;102726.56;5145540;28;19911;-89
2023/05/27 00:42:41;;;;;;;16.40;5.67;;;;;;;13.35;61.37;102749.50;5170723;28;20030;-89
2023/05/27 00:45:13;;;;;;;17.17;5.80;;;;;;;13.22;62.38;102757.03;5178827;28;20014;-88
2023/05/27 00:47:49;;;;;;;14.17;5.03;;;;;;;12.86;63.52;102734.78;5164018;28;20011;-87
2023/05/27 00:50:21;;;;;;;18.87;4.97;;;;;;;12.75;64.49;102753.59;5181067;28;20027;-88
2023/05/27 00:52:56;;;;;;;14.50;4.10;;;;;;;12.62;66.96;102720.81;5175922;28;20032;-89
2023/05/27 00:55:31;;;;;;;14.77;5.70;;;;;;;12.97;66.22;102770.31;5147408;28;20121;-88
2023/05/27 00:58:03;;;;;;;12.10;4.50;;;;;;;12.55;64.97;102746.47;5158625;28;20129;-88
2023/05/27 01:00:38;;;;;;;18.83;4.77;;;;;;;12.80;63.72;102740.25;5155889;28;20725;-88
2023/05/27 01:03:09;;;;;;;15.83;4.10;;;;;;;12.69;64.52;102738.91;5139466;29;20030;-88
2023/05/27 01:05:41;;;;;;;16.07;5.00;;;;;;;12.67;64.29;102719.69;5156436;28;20383;-88
2023/05/27 01:08:44;;;;;;;15.93;5.83;;;;;;;13.07;64.18;102774.28;5156273;28;20669;-88
2023/05/27 01:11:21;;;;;;;15.27;4.97;;;;;;;12.63;66.66;102751.44;5138724;28;20035;-87
2023/05/27 01:13:59;;;;;;;16.60;4.77;;;;;;;12.52;66.89;102736.06;5138829;29;20027;-87
2023/05/27 01:16:32;;;;;;;18.27;4.87;;;;;;;12.62;64.88;102734.78;5155084;28;20691;-88
2023/05/27 01:19:11;;;;;;;15.30;4.80;;;;;;;12.40;67.14;102716.34;5155200;28;20072;-87
2023/05/27 01:21:50;;;;;;;15.90;5.13;;;;;;;12.41;67.92;102728.59;5153446;28;20027;-88
2023/05/27 01:24:21;;;;;;;16.53;5.17;;;;;;;12.31;69.15;102742.06;5140266;28;20038;-88
2023/05/27 01:26:55;;;;;;;12.67;4.37;;;;;;;12.28;69.42;102746.56;5133456;28;20027;-88
2023/05/27 01:29:28;;;;;;;19.33;5.78;;;;;;;12.28;67.03;102734.31;5137914;29;20023;-89
2023/05/27 01:32:21;;;;;;;17.73;6.07;;;;;;;12.75;65.77;102763.25;5138920;28;20447;-88
2023/05/27 01:35:14;;;;;;;15.80;4.63;;;;;;;12.27;70.38;102722.06;5138434;28;20031;-88
2023/05/27 01:37:46;;;;;;;19.23;6.60;;;;;;;12.07;68.40;102726.25;5154291;28;20031;-88
2023/05/27 01:40:18;;;;;;;13.00;4.87;;;;;;;12.26;67.46;102733.50;5156131;28;20102;-88
2023/05/27 01:42:49;;;;;;;11.97;4.93;;;;;;;12.23;69.05;102749.38;5138357;28;20030;-88
2023/05/27 01:45:21;;;;;;;16.13;4.73;;;;;;;11.81;70.15;102707.06;5138223;28;20038;-88
2023/05/27 01:47:52;;;;;;;14.60;4.93;;;;;;;12.16;68.13;102725.09;5154266;29;20035;-88
2023/05/27 01:50:46;;;;;;;19.10;4.83;;;;;;;12.62;66.88;102755.00;5153777;28;20038;-88
2023/05/27 01:53:17;;;;;;;21.43;5.13;;;;;;;12.05;67.92;102712.31;5138278;28;20356;-88
2023/05/27 01:55:49;;;;;;;17.13;5.77;;;;;;;12.03;69.20;102735.16;5137766;29;20132;-87
2023/05/27 01:58:20;;;;;;;12.50;4.50;;;;;;;11.70;69.45;102696.06;5137536;28;20030;-88
2023/05/27 02:00:52;;;;;;;14.73;5.17;;;;;;;11.86;68.92;102694.63;5154063;29;20106;-88
2023/05/27 02:03:23;;;;;;;18.63;5.60;;;;;;;11.44;71.54;102700.44;5154814;28;20042;-88
2023/05/27 02:05:55;;;;;;;16.20;6.13;;;;;;;11.62;70.76;102715.53;5154656;29;20038;-85
2023/05/27 02:08:27;;;;;;;23.10;5.30;;;;;;;11.89;70.76;102754.03;5154918;29;20475;-87
2023/05/27 02:10:59;;;;;;;15.90;4.87;;;;;;;11.79;69.76;102713.25;5154327;29;20061;-85
2023/05/27 02:13:30;;;;;;;18.53;6.10;;;;;;;11.74;70.06;102734.41;5153847;29;20091;-85
2023/05/27 02:16:02;;;;;;;18.63;5.83;;;;;;;11.54;70.43;102698.34;5153800;29;20062;-85
2023/05/27 02:18:34;;;;;;;14.53;4.87;;;;;;;11.42;72.68;102717.97;5137800;29;20368;-88
2023/05/27 02:21:06;;;;;;;14.80;5.67;;;;;;;11.51;72.48;102730.81;5138118;29;20081;-87
2023/05/27 02:24:03;;;;;;;19.07;5.80;;;;;;;12.12;69.55;102759.41;5173127;28;20686;-88
2023/05/27 02:26:35;;;;;;;16.30;5.73;;;;;;;11.46;72.99;102730.09;5173620;28;20038;-85
2023/05/27 02:29:06;;;;;;;16.10;6.47;;;;;;;11.20;73.04;102697.72;5156979;28;20022;-85
2023/05/27 02:31:37;;;;;;;13.53;4.60;;;;;;;11.25;73.52;102711.53;5172985;28;20429;-86
2023/05/27 02:34:20;;;;;;;12.90;4.97;;;;;;;11.55;71.20;102718.44;5174535;28;20027;-86
2023/05/27 02:36:55;;;;;;;12.83;4.57;;;;;;;11.37;73.28;102732.13;5155691;28;20047;-86
2023/05/27 02:39:26;;;;;;;;;;;;;;;12.27;67.18;102758.84;5174676;28;20030;-87
2023/05/27 02:41:58;;;;;;;16.70;5.30;;;;;;;11.52;71.62;102734.28;5173811;28;19910;-87
2023/05/27 02:44:29;;;;;;;18.70;5.07;;;;;;;11.50;72.48;102747.47;5173534;28;20023;-89
2023/05/27 02:47:01;;;;;;;17.63;5.60;;;;;;;11.18;72.63;102689.03;5157463;28;20600;-89
2023/05/27 02:49:32;;;;;;;20.53;6.20;;;;;;;11.40;74.28;102753.94;5173699;28;20031;-89
2023/05/27 02:52:03;;;;;;;16.53;5.07;;;;;;;11.18;73.98;102731.88;5157460;28;20114;-88
2023/05/27 02:54:35;;;;;;;22.07;5.73;;;;;;;11.11;76.18;102749.56;5156666;28;20453;-87
2023/05/27 02:57:06;;;;;;;22.90;7.23;;;;;;;11.10;74.91;102733.88;5154683;29;20031;-86
2023/05/27 02:59:39;;;;;;;12.17;5.40;;;;;;;11.11;74.95;102725.09;5136835;29;20046;-86
2023/05/27 03:02:11;;;;;;;12.70;5.37;;;;;;;11.20;74.76;102742.31;5153680;28;20054;-86
2023/05/27 03:04:42;;;;;;;18.67;6.33;;;;;;;11.16;74.25;102728.44;5154102;29;20023;-86
2023/05/27 03:07:14;;;;;;;17.97;6.93;;;;;;;11.05;76.45;102760.22;5153832;29;20034;-86
2023/05/27 03:09:45;;;;;;;18.20;6.30;;;;;;;10.77;77.46;102713.88;5160689;28;20390;-87
2023/05/27 03:12:17;;;;;;;21.63;5.93;;;;;;;10.91;76.65;102728.34;5157828;28;20031;-86
2023/05/27 03:15:07;;;;;;;17.97;6.00;;;;;;;11.50;75.12;102771.09;5154652;29;20386;-88
2023/05/27 03:17:43;;;;;;;19.43;7.00;;;;;;;11.13;76.86;102752.13;5154921;29;20015;-88
2023/05/27 03:20:16;;;;;;;17.37;6.80;;;;;;;10.85;78.46;102740.75;5157493;28;20034;-90
2023/05/27 03:22:47;;;;;;;21.57;6.27;;;;;;;10.89;76.95;102728.41;5135780;29;20043;-90
2023/05/27 03:25:19;;;;;;;19.27;5.40;;;;;;;10.91;77.90;102739.69;5150898;28;20029;-89
2023/05/27 03:27:50;;;;;;;17.10;6.53;;;;;;;10.68;79.14;102719.44;5155388;28;20156;-85
2023/05/27 03:30:23;;;;;;;18.90;6.37;;;;;;;10.93;77.51;102737.00;5155085;28;20069;-85
2023/05/27 03:32:54;;;;;;;16.90;5.73;;;;;;;10.54;79.95;102710.22;5155472;28;20531;-84
2023/05/27 03:35:25;;;;;;;23.77;5.87;;;;;;;10.68;80.25;102733.41;5172615;28;20165;-86
2023/05/27 03:37:56;;;;;;;22.87;5.63;;;;;;;10.60;79.14;102693.44;5176417;28;20023;-86
2023/05/27 03:40:28;;;;;;;15.17;5.20;;;;;;;10.75;78.37;102713.09;5218454;28;20471;-85
2023/05/27 03:42:59;;;;;;;16.90;5.73;;;;;;;10.70;80.54;102725.50;5218588;28;20027;-87
2023/05/27 03:45:31;;;;;;;13.37;6.03;;;;;;;10.46;80.51;102693.81;5234295;28;20031;-85
2023/05/27 03:48:02;;;;;;;14.03;5.57;;;;;;;10.77;79.47;102724.38;5218406;28;20110;-86
2023/05/27 03:50:34;;;;;;;14.37;6.13;;;;;;;10.47;80.59;102683.31;5218280;28;20150;-85
2023/05/27 03:53:05;;;;;;;17.07;5.40;;;;;;;10.58;80.41;102701.34;5218110;28;20077;-85
2023/05/27 03:55:36;;;;;;;17.23;5.97;;;;;;;10.76;80.19;102725.28;5185065;28;20018;-85
2023/05/27 03:58:08;;;;;;;16.90;6.37;;;;;;;10.46;83.25;102701.69;5170607;28;20061;-85
2023/05/27 04:00:41;;;;;;;17.73;5.90;;;;;;;10.72;80.37;102708.78;5166751;28;20027;-86
2023/05/27 04:03:12;;;;;;;18.40;6.03;;;;;;;10.33;83.13;102668.00;5172571;28;20083;-86
2023/05/27 04:05:44;;;;;;;25.07;6.73;;;;;;;10.53;82.54;102718.97;5167060;28;20102;-86
2023/05/27 04:08:15;;;;;;;22.13;5.93;;;;;;;10.52;82.00;102707.63;5155658;28;20135;-85
2023/05/27 04:10:46;;;;;;;17.50;5.70;;;;;;;10.35;83.52;102705.47;5156839;28;20046;-85
2023/05/27 04:13:19;;;;;;;20.43;7.13;;;;;;;10.59;82.94;102713.56;5192400;28;20051;-86
2023/05/27 04:15:51;;;;;;;18.07;6.60;;;;;;;10.44;82.09;102666.84;5156052;28;20054;-84
2023/05/27 04:18:22;;;;;;;16.47;6.27;;;;;;;10.27;83.36;102681.28;5152077;28;20027;-85
2023/05/27 04:20:58;;;;;;;19.00;5.80;;;;;;;10.25;82.89;102668.22;5152368;29;20023;-85
2023/05/27 04:23:29;;;;;;;19.63;6.80;;;;;;;10.50;83.39;102698.09;5226041;28;20114;-85
2023/05/27 04:26:00;;;;;;;19.83;6.87;;;;;;;10.37;85.57;102672.25;5257159;28;20071;-84
2023/05/27 04:28:34;;;;;;;20.13;6.50;;;;;;;10.27;85.43;102691.75;5256808;28;20029;-84
2023/05/27 04:31:05;;;;;;;17.27;6.87;;;;;;;10.43;83.98;102691.28;5257611;28;20403;-84
2023/05/27 04:33:37;;;;;;;15.83;5.60;;;;;;;10.32;84.91;102692.47;5259787;28;20029;-86
2023/05/27 04:36:09;;;;;;;21.67;6.70;;;;;;;10.41;83.89;102679.13;5260687;28;20025;-85
2023/05/27 04:38:40;;;;;;;15.43;5.73;;;;;;;10.35;85.84;102678.44;5256590;28;20017;-85
2023/05/27 04:41:12;;;;;;;21.13;5.97;;;;;;;10.34;84.47;102667.09;5258986;28;20059;-85
2023/05/27 04:43:43;;;;;;;20.57;6.53;;;;;;;10.21;86.92;102674.44;5257225;28;20024;-85
2023/05/27 04:46:14;;;;;;;21.47;7.30;;;;;;;10.26;86.39;102666.47;5256952;28;20542;-85
2023/05/27 04:48:46;;;;;;;20.17;6.60;;;;;;;10.19;86.14;102657.06;5255669;28;20037;-87
2023/05/27 04:51:17;;;;;;;20.33;6.70;;;;;;;10.24;87.05;102663.03;5239663;28;20251;-87
2023/05/27 04:53:49;;;;;;;23.13;6.63;;;;;;;10.12;89.12;102664.25;5256885;28;20407;-87
2023/05/27 04:56:21;;;;;;;18.90;6.30;;;;;;;10.42;87.60;102690.44;5239856;28;20477;-87
2023/05/27 04:58:52;;;;;;;19.07;6.93;;;;;;;10.16;88.24;102652.78;5256651;28;20028;-84
2023/05/27 05:01:39;;;;;;;19.73;6.63;;;;;;;10.42;87.11;102651.13;5239418;28;20025;-84
2023/05/27 05:04:12;;;;;;;18.10;6.73;;;;;;;10.35;87.50;102653.09;5257715;28;20468;-85
2023/05/27 05:06:43;;;;;;;22.00;6.57;;;;;;;10.44;87.05;102661.59;5239080;28;20021;-85
2023/05/27 05:09:15;;;;;;;19.73;6.30;;;;;;;10.62;86.87;102668.94;5258245;28;20041;-87
2023/05/27 05:11:48;;;;;;;18.63;7.13;;;;;;;10.87;85.21;102688.28;5240593;28;20082;-87
2023/05/27 05:14:20;;;;;;;14.20;6.00;;;;;;;10.63;86.24;102670.63;5241327;28;20040;-87
2023/05/27 05:16:51;;;;;;;19.37;7.23;;;;;;;10.66;87.49;102667.06;5259076;28;20028;-84
2023/05/27 05:19:55;;;;;;;17.97;7.13;;;;;;;11.06;87.05;102711.28;5259918;28;20087;-84
2023/05/27 05:22:28;;;;;;;19.57;6.60;;;;;;;10.63;86.93;102652.28;5234872;28;20050;-85
2023/05/27 05:25:10;;;;;;;17.77;6.20;;;;;;;10.90;88.82;102688.16;5175736;28;20061;-84
2023/05/27 05:27:41;;;;;;;13.30;6.87;;;;;;;10.84;88.67;102701.47;5193202;28;20050;-85
2023/05/27 05:30:13;;;;;;;24.47;6.80;;;;;;;10.63;87.88;102649.66;5195492;28;20716;-85
2023/05/27 05:32:44;;;;;;;21.90;7.53;;;;;;;10.55;88.33;102654.28;5175540;28;20077;-85
2023/05/27 05:35:15;;;;;;;20.73;7.27;;;;;;;10.89;88.28;102689.91;5193701;28;20008;-85
2023/05/27 05:37:47;;;;;;;20.93;6.47;;;;;;;10.79;87.93;102641.31;5177286;28;20062;-85
2023/05/27 05:40:18;;;;;;;20.30;7.80;;;;;;;10.91;88.16;102675.94;5163404;28;20536;-84
2023/05/27 05:42:50;;;;;;;20.33;6.83;;;;;;;10.86;89.73;102644.59;5160263;28;20117;-84
2023/05/27 05:45:21;;;;;;;17.60;6.40;;;;;;;10.95;85.87;102636.44;5219204;28;20054;-88
2023/05/27 05:47:52;;;;;;;22.77;6.77;;;;;;;11.07;86.69;102661.41;5138221;28;20360;-88
2023/05/27 05:50:28;;;;;;;20.77;7.77;;;;;;;11.32;87.45;102694.69;5154538;28;20617;-90
2023/05/27 05:52:59;;;;;;;23.67;7.57;;;;;;;10.99;86.84;102655.56;5156214;28;20080;-91
2023/05/27 05:55:31;;;;;;;19.23;7.37;;;;;;;11.28;87.39;102685.19;5156137;28;20484;-91
2023/05/27 05:58:04;;;;;;;17.73;6.63;;;;;;;11.32;87.44;102664.97;5146136;28;20391;-91
2023/05/27 06:00:44;;;;;;;16.03;7.67;;;;;;;11.27;87.26;102628.41;5118358;28;20388;-91
2023/05/27 06:03:24;;;;;;;25.47;7.57;;;;;;;11.71;89.44;102682.88;5134217;29;20275;-88
2023/05/27 06:05:56;;;;;;;18.97;7.33;;;;;;;11.50;88.69;102666.13;5119830;29;20027;-89
2023/05/27 06:08:27;;;;;;;18.67;6.87;;;;;;;11.50;86.64;102658.25;5153058;28;20415;-89
2023/05/27 06:10:58;;;;;;;20.87;7.30;;;;;;;11.55;87.00;102669.44;5137117;28;20062;-86
2023/05/27 06:13:32;;;;;;;31.73;9.80;;;;;;;11.46;87.13;102631.25;5155546;28;20047;-88
2023/05/27 06:16:03;;;;;;;28.37;7.70;;;;;;;11.51;85.89;102628.47;5155041;28;20410;-87
2023/05/27 06:18:35;;;;;;;16.93;6.67;;;;;;;11.57;86.06;102635.28;5153758;29;20073;-88
2023/05/27 06:21:06;;;;;;;24.87;7.63;;;;;;;11.60;85.88;102628.16;5169269;28;20121;-85
2023/05/27 06:23:38;;;;;;;16.93;6.97;;;;;;;11.79;86.13;102638.00;5168942;28;20130;-86
2023/05/27 06:26:09;;;;;;;20.13;7.90;;;;;;;11.76;85.85;102618.88;5164850;28;20039;-86
2023/05/27 06:28:40;;;;;;;21.43;6.87;;;;;;;11.94;84.86;102630.44;5254296;28;20060;-84
2023/05/27 06:31:12;;;;;;;21.67;7.03;;;;;;;12.02;85.14;102628.41;5259312;28;20033;-86
2023/05/27 06:33:43;;;;;;;20.93;7.60;;;;;;;12.02;84.35;102612.66;5268083;28;20041;-86
2023/05/27 06:36:15;;;;;;;20.80;7.27;;;;;;;12.14;84.08;102613.13;5159485;28;20124;-84
2023/05/27 06:38:46;;;;;;;21.90;7.83;;;;;;;12.26;84.08;102604.78;5176269;28;20028;-86
2023/05/27 06:41:17;;;;;;;17.83;7.23;;;;;;;12.48;82.20;102630.19;5158711;28;20886;-85
2023/05/27 06:43:49;;;;;;;20.97;6.80;;;;;;;12.75;80.23;102652.81;5171127;28;20031;-83
2023/05/27 06:46:20;;;;;;;20.77;7.30;;;;;;;12.70;81.67;102619.72;5163561;28;20023;-85
2023/05/27 06:48:52;;;;;;;22.57;7.43;;;;;;;12.71;80.63;102617.91;5165399;28;20106;-86
2023/05/27 06:51:23;;;;;;;17.87;7.60;;;;;;;12.87;79.56;102593.63;5158603;28;20031;-85
2023/05/27 06:54:30;;;;;;;22.13;6.87;;;;;;;13.63;77.77;102656.22;5179320;28;20027;-87
2023/05/27 06:57:03;;;;;;;22.03;7.37;;;;;;;13.44;77.14;102611.38;5161893;28;20030;-85
2023/05/27 06:59:34;;;;;;;23.23;8.13;;;;;;;13.68;75.10;102619.16;5177534;28;20007;-84
2023/05/27 07:02:06;;;;;;;21.60;7.13;;;;;;;14.00;74.71;102626.50;5196786;28;20042;-83
2023/05/27 07:04:38;;;;;;;23.70;8.23;;;;;;;14.19;73.56;102610.69;5197531;28;20042;-84
2023/05/27 07:07:09;;;;;;;26.63;8.00;;;;;;;14.59;68.62;102650.13;5197172;28;20035;-84
2023/05/27 07:09:41;;;;;;;25.90;7.80;;;;;;;14.68;67.92;102606.63;5199900;28;20021;-89
2023/05/27 07:12:23;;;;;;;20.73;6.33;;;;;;;15.11;67.90;102585.19;5202903;28;20003;-90
2023/05/27 07:14:56;;;;;;;23.37;6.80;;;;;;;15.39;66.86;102580.28;5185962;28;20014;-90
2023/05/27 07:17:30;;;;;;;19.67;7.53;;;;;;;15.94;63.20;102596.72;5192562;28;20464;-86
2023/05/27 07:20:02;;;;;;;16.85;7.00;;;;;;;16.39;62.92;102598.69;5179282;28;20027;-83
2023/05/27 07:26:59;;;;;;;25.10;6.57;;;;;;;18.31;57.39;102643.88;5159707;29;20035;-84
2023/05/27 07:37:57;;;;;;;20.00;5.70;;;;;;;20.39;50.17;102632.44;5158146;29;20040;-84
2023/05/27 07:44:12;;;;;;;16.27;6.27;;;;;;;20.96;43.76;102576.78;5157199;29;20169;-84
2023/05/27 07:46:44;;;;;;;16.37;6.53;;;;;;;21.19;43.05;102587.44;5156323;29;20042;-85
2023/05/27 07:49:16;;;;;;;18.43;7.30;;;;;;;21.49;42.56;102585.13;5156402;28;20165;-86
2023/05/27 07:52:14;;;;;;;16.03;6.87;;;;;;;22.54;43.96;102625.66;5156471;29;20110;-85
2023/05/27 07:54:50;;;;;;;20.83;8.18;;;;;;;22.20;41.49;102572.44;5138896;28;20418;-85
2023/05/27 07:57:21;;;;;;;16.45;6.55;;;;;;;22.63;40.70;102600.03;5137806;28;20026;-85
2023/05/27 08:00:27;;;;;;;17.65;7.55;;;;;;;23.51;39.07;102606.84;5153935;29;20390;-84
2023/05/27 08:03:00;;;;;;;18.00;6.25;;;;;;;22.90;39.18;102577.28;5154363;28;20034;-85
2023/05/27 08:05:33;;;;;;;20.70;6.60;;;;;;;23.03;38.18;102560.19;5136169;29;20050;-85
2023/05/27 08:08:09;;;;;;;19.33;6.95;;;;;;;23.25;38.09;102561.03;5153130;29;20081;-86
2023/05/27 08:10:40;;;;;;;20.58;7.03;;;;;;;23.63;36.41;102567.50;5135723;28;20440;-85
2023/05/27 08:13:15;;;;;;;15.38;5.95;;;;;;;23.87;35.85;102560.94;5154417;29;20042;-84
2023/05/27 08:15:47;;;;;;;16.50;6.40;;;;;;;24.09;35.22;102560.81;5152917;29;20027;-83
2023/05/27 08:18:18;;;;;;;17.73;6.65;;;;;;;24.37;34.95;102583.22;5152864;29;20053;-84
2023/05/27 08:20:49;;;;;;;16.42;6.68;;;;;;;24.24;35.27;102534.47;5135596;29;20058;-84
2023/05/27 08:23:22;;;;;;;16.58;6.15;;;;;;;24.65;34.84;102580.66;5153770;29;20474;-83
2023/05/27 08:25:55;;;;;;;18.90;8.15;;;;;;;24.71;34.56;102551.59;5173907;28;20031;-83
2023/05/27 08:28:26;;;;;;;17.90;6.13;;;;;;;24.99;33.86;102578.47;5173923;28;20045;-83
2023/05/27 08:31:00;;;;;;;18.67;7.22;;;;;;;25.28;33.34;102544.50;5155217;28;20027;-83
2023/05/27 08:33:31;;;;;;;;;;;;;;;27.27;34.03;102580.25;5172632;28;20027;-83
2023/05/27 08:36:03;;;;;;;18.00;7.60;;;;;;;25.79;32.16;102562.84;5170945;28;20281;-83
2023/05/27 08:38:42;;;;;;;17.58;6.45;;;;;;;26.43;33.49;102559.25;5172780;28;20054;-85
2023/05/27 08:41:15;;;;;;;19.50;6.60;;;;;;;25.90;32.99;102508.13;5159346;28;20031;-85
2023/05/27 08:43:47;;;;;;;17.25;6.22;;;;;;;25.98;31.78;102516.25;5174454;28;20027;-83
2023/05/27 08:46:19;;;;;;;14.80;5.93;;;;;;;26.92;30.83;102561.41;5172373;28;20117;-83
2023/05/27 08:48:52;;;;;;;19.77;6.22;;;;;;;26.60;30.89;102522.56;5170190;28;20030;-84
2023/05/27 08:51:25;;;;;;;16.17;6.85;;;;;;;27.15;30.38;102525.06;5172094;28;20076;-83
2023/05/27 08:53:57;;;;;;;14.43;6.60;;;;;;;27.64;30.30;102521.69;5154435;28;20022;-84
2023/05/27 08:56:31;;;;;;;16.75;6.80;;;;;;;27.56;30.01;102547.72;5174998;28;20031;-84
2023/05/27 08:59:03;;;;;;;;;;;;;;;30.03;29.28;102547.41;5172789;28;20031;-84
2023/05/27 09:01:35;;;;;;;17.52;6.28;;;;;;;28.46;28.86;102527.25;5175047;28;20358;-84
2023/05/27 09:04:06;;;;;;;16.38;6.40;;;;;;;28.43;28.50;102516.84;5175673;28;20026;-85
2023/05/27 09:06:44;;;;;;;16.23;6.22;;;;;;;28.91;28.86;102513.31;5175858;28;20072;-88
2023/05/27 09:09:18;;;;;;;16.27;6.32;;;;;;;29.27;27.95;102520.06;5174999;28;20015;-86
2023/05/27 09:11:49;;;;;;;18.08;6.55;;;;;;;29.32;27.95;102530.34;5177884;28;20035;-88
2023/05/27 09:17:49;;;;;;;17.08;6.63;;;;;;;29.79;26.94;102506.09;5179732;28;20864;-90
2023/05/27 09:20:28;;;;;;;21.08;7.30;;;;;;;30.36;27.42;102487.69;5220827;28;20036;-89
2023/05/27 09:23:01;;;;;;;17.13;6.65;;;;;;;30.58;26.61;102493.19;5217730;28;20026;-84
2023/05/27 09:25:32;;;;;;;13.90;6.53;;;;;;;30.81;25.21;102484.13;5215781;28;20052;-86
2023/05/27 09:28:05;;;;;;;16.75;5.68;;;;;;;31.01;25.38;102484.41;5221638;28;20028;-87
2023/05/27 09:30:38;;;;;;;15.20;6.50;;;;;;;31.33;24.61;102491.41;5258576;28;20035;-86
2023/05/27 09:33:10;;;;;;;14.52;5.72;;;;;;;31.07;25.71;102488.19;5215928;28;20027;-87
2023/05/27 09:35:50;;;;;;;21.13;7.80;;;;;;;31.38;25.58;102484.34;5214772;28;20035;-86
2023/05/27 09:38:23;;;;;;;16.45;6.45;;;;;;;31.60;24.47;102487.13;5208975;28;20105;-87
2023/05/27 09:40:54;;;;;;;13.33;6.13;;;;;;;31.13;24.29;102494.72;5226879;28;20030;-88
2023/05/27 09:43:27;;;;;;;19.27;7.10;;;;;;;31.28;24.54;102475.72;5216932;28;20480;-86
2023/05/27 09:46:07;;;;;;;18.58;6.47;;;;;;;31.98;24.21;102477.00;5210209;28;20047;-86
2023/05/27 09:48:39;;;;;;;18.45;6.25;;;;;;;31.79;24.46;102479.34;5215291;28;20039;-87
2023/05/27 09:51:14;;;;;;;17.67;6.20;;;;;;;32.00;24.70;102493.91;5212756;28;20074;-88
2023/05/27 09:53:47;;;;;;;15.10;6.45;;;;;;;31.98;24.55;102479.72;5235461;28;20051;-87
2023/05/27 09:56:29;;;;;;;;;;;;;;;34.16;23.43;102484.72;5229154;28;20543;-87
2023/05/27 09:59:01;;;;;;;15.45;5.53;;;;;;;33.28;22.78;102461.16;5226052;28;19914;-88
2023/05/27 10:01:35;;;;;;;13.55;6.00;;;;;;;33.07;22.23;102456.69;5221565;28;20032;-88
2023/05/27 10:04:11;;;;;;;19.02;6.35;;;;;;;32.16;23.94;102479.22;5230993;28;20035;-87
2023/05/27 10:06:48;;;;;;;14.10;6.35;;;;;;;32.42;23.39;102463.31;5258412;28;20025;-88
2023/05/27 10:09:23;;;;;;;15.35;6.38;;;;;;;33.01;22.61;102480.06;5230902;28;20045;-88
2023/05/27 10:12:07;;;;;;;20.02;5.70;;;;;;;32.28;22.95;102438.84;5198031;28;20031;-89
2023/05/27 10:14:39;;;;;;;19.70;6.18;;;;;;;31.22;23.84;102442.19;5266342;28;20024;-89
2023/05/27 10:17:57;;;;;;;17.23;6.13;;;;;;;31.82;23.50;102421.25;5252046;28;20019;-87
2023/05/27 10:20:32;;;;;;;12.70;5.28;;;;;;;31.02;24.40;102471.69;5193383;23;20150;-73
2023/05/27 10:23:18;;;;;;;15.93;6.60;;;;;;;31.03;24.74;102468.00;5162428;28;20159;-73
2023/05/27 10:26:00;;;;;;;15.30;6.22;;;;;;;29.58;25.17;102453.59;5167089;28;20412;-73
2023/05/27 10:28:39;;;;;;;20.10;6.38;;;;;;;30.38;26.34;102453.22;5164288;28;20041;-80
2023/05/27 10:31:11;;;;;;;18.25;6.63;;;;;;;30.39;24.67;102454.88;5160241;28;20555;-77
2023/05/27 10:33:50;;;;;;;18.88;6.90;;;;;;;30.29;25.79;102452.47;5164600;28;20513;-78
2023/05/27 10:36:25;;;;;;;15.70;5.93;;;;;;;30.93;24.10;102451.22;5161919;28;20031;-78
2023/05/27 10:38:58;;;;;;;15.05;5.80;;;;;;;30.78;24.84;102454.75;5159134;28;20042;-75
2023/05/27 10:41:39;;;;;;;15.52;5.75;;;;;;;31.40;24.70;102449.00;5157853;28;20049;-79
2023/05/27 10:44:11;;;;;;;15.52;5.85;;;;;;;30.89;24.92;102448.06;5162432;28;20027;-77
2023/05/27 10:46:44;;;;;;;13.68;5.80;;;;;;;31.42;23.88;102438.00;5159645;28;20057;-75
2023/05/27 10:49:23;;;;;;;17.05;6.15;;;;;;;31.55;24.46;102439.97;5158116;28;20049;-75
2023/05/27 10:51:54;;;;;;;17.40;6.63;;;;;;;31.98;23.27;102437.22;5159227;28;20031;-76
2023/05/27 10:54:25;;;;;;;14.95;6.50;;;;;;;31.15;24.04;102431.28;5157851;28;20019;-75
2023/05/27 10:56:57;;;;;;;11.82;5.15;;;;;;;31.98;22.85;102437.22;5158758;28;20196;-75
2023/05/27 10:59:39;;;;;;;16.63;6.07;;;;;;;32.50;23.29;102427.91;5157138;28;20038;-75
2023/05/27 11:02:11;;;;;;;16.75;6.25;;;;;;;32.34;23.23;102426.38;5174909;28;20025;-76
2023/05/27 11:04:42;;;;;;;18.00;6.15;;;;;;;31.85;23.29;102413.56;5216234;28;20499;-75
2023/05/27 11:07:21;;;;;;;21.73;6.53;;;;;;;32.42;22.53;102403.66;5216072;28;20035;-73
2023/05/27 11:09:53;;;;;;;16.65;6.07;;;;;;;32.52;22.67;102416.88;5226152;28;20376;-75
2023/05/27 11:12:25;;;;;;;15.80;6.95;;;;;;;32.17;23.30;102399.59;5223530;28;20073;-75
2023/05/27 11:14:57;;;;;;;17.20;6.75;;;;;;;32.15;23.33;102398.13;5189260;28;20113;-75
2023/05/27 11:17:29;;;;;;;13.98;6.22;;;;;;;31.39;24.28;102385.91;5176235;28;20038;-75
2023/05/27 11:20:05;;;;;;;15.48;6.18;;;;;;;32.18;22.91;102389.59;5184864;28;20133;-72
2023/05/27 11:22:37;;;;;;;16.65;7.07;;;;;;;31.55;23.39;102383.13;5245060;28;20034;-74
2023/05/27 11:25:09;;;;;;;16.70;7.05;;;;;;;31.60;23.87;102383.38;5212739;28;20384;-72
2023/05/27 11:27:41;;;;;;;15.17;6.70;;;;;;;31.37;24.21;102374.44;5208873;28;20038;-71
2023/05/27 11:30:13;;;;;;;15.60;6.10;;;;;;;31.87;23.14;102373.56;5225552;28;20693;-73
2023/05/27 11:32:44;;;;;;;15.93;5.53;;;;;;;31.63;23.37;102367.59;5233901;28;20058;-75
2023/05/27 11:35:17;;;;;;;17.98;6.20;;;;;;;30.84;23.47;102361.25;5212586;28;20062;-73
2023/05/27 11:37:52;;;;;;;16.25;5.03;;;;;;;31.08;23.87;102361.91;5253105;28;20035;-72
2023/05/27 11:40:24;;;;;;;14.85;6.40;;;;;;;31.19;23.34;102350.56;5232256;28;20072;-71
2023/05/27 11:43:00;;;;;;;14.25;5.40;;;;;;;31.43;23.02;102355.78;5276596;28;20016;-71
2023/05/27 11:45:37;;;;;;;13.55;5.68;;;;;;;31.10;22.82;102357.97;5196393;28;20378;-71
2023/05/27 11:48:08;;;;;;;14.63;4.78;;;;;;;31.15;22.93;102368.22;5184719;28;20031;-71
2023/05/27 11:50:40;;;;;;;15.05;5.72;;;;;;;30.36;23.09;102351.72;5184646;28;20023;-73
2023/05/27 11:53:15;;;;;;;15.00;5.47;;;;;;;30.87;23.08;102352.75;5187004;28;20026;-74
2023/05/27 11:55:46;;;;;;;13.48;4.35;;;;;;;30.68;21.73;102342.34;5188298;28;20490;-74
2023/05/27 11:58:18;;;;;;;12.90;4.45;;;;;;;30.65;22.99;102344.59;5169757;28;20136;-74
2023/05/27 12:00:49;;;;;;;11.25;5.28;;;;;;;30.77;22.56;102343.03;5185980;28;20022;-74
2023/05/27 12:03:20;;;;;;;12.98;5.20;;;;;;;30.71;22.86;102335.72;5187012;28;20140;-74
2023/05/27 12:05:52;;;;;;;13.38;4.30;;;;;;;30.37;23.56;102321.81;5186991;28;20029;-73
2023/05/27 12:08:23;;;;;;;15.73;5.55;;;;;;;30.70;23.18;102322.41;5186895;28;20037;-74
2023/05/27 12:10:54;;;;;;;14.38;5.43;;;;;;;30.56;22.87;102319.56;5183415;28;20075;-74